Time;durP1;ratioP1;P1;durP2;ratioP2;P2;SDS_P1;SDS_P2;PMS_P1;PMS_P2;Temp;Humidity;BMP_temperature;BMP_pressure;BME280_temperature;BME280_humidity;BME280_pressure;Samples;Min_cycle;Max_cycle;Signal;HPM_P1;HPM_P2
2022/09/17 00:00:48;;;;;;;;;;;17.50;84.50;;;;;;6339978;22;20377;-91
2022/09/17 00:03:14;;;;;;;;;;;17.50;84.00;;;;;;6339991;22;20372;-91
2022/09/17 00:05:39;;;;;;;;;;;17.50;84.00;;;;;;6339830;22;19936;-91
2022/09/17 00:08:06;;;;;;;;;;;17.60;83.90;;;;;;6339356;22;19958;-91
2022/09/17 00:10:32;;;;;;;;;;;17.60;84.10;;;;;;6339250;22;20393;-91
2022/09/17 00:12:58;;;;;;;;;;;17.50;85.60;;;;;;6340039;22;19990;-91
2022/09/17 00:15:23;;;;;;;;;;;17.50;85.90;;;;;;6339879;22;19935;-91
2022/09/17 00:17:56;;;;;;;;;;;17.50;86.00;;;;;;6339745;22;19942;-90
2022/09/17 00:20:25;;;;;;;;;;;17.50;85.90;;;;;;6340009;22;19943;-91
2022/09/17 00:22:51;;;;;;;;;;;17.50;85.40;;;;;;6312292;22;19941;-90
2022/09/17 00:25:18;;;;;;;;;;;17.40;85.90;;;;;;6339714;22;20346;-91
2022/09/17 00:27:43;;;;;;;;;;;17.30;86.40;;;;;;6340011;22;20014;-91
2022/09/17 00:30:09;;;;;;;;;;;17.30;86.60;;;;;;6339646;22;20458;-90
2022/09/17 00:32:35;;;;;;;;;;;17.30;86.80;;;;;;6339770;22;19960;-91
2022/09/17 00:35:00;;;;;;;;;;;17.30;86.90;;;;;;6339766;22;19935;-90
2022/09/17 00:37:26;;;;;;;;;;;17.30;87.30;;;;;;6340056;22;19939;-91
2022/09/17 00:39:51;;;;;;;;;;;17.20;87.90;;;;;;6339973;22;19937;-91
2022/09/17 00:42:18;;;;;;;;;;;17.20;88.30;;;;;;6339805;22;20018;-90
2022/09/17 00:44:43;;;;;;;;;;;17.10;88.60;;;;;;6339701;22;19938;-91
2022/09/17 00:47:14;;;;;;;;;;;17.10;89.10;;;;;;6339667;22;19938;-90
2022/09/17 00:49:40;;;;;;;;;;;17.10;89.30;;;;;;6340044;22;19962;-91
2022/09/17 00:52:08;;;;;;;;;;;17.00;89.50;;;;;;6339792;22;19976;-90
2022/09/17 00:54:34;;;;;;;;;;;17.00;89.80;;;;;;6339206;22;19982;-91
2022/09/17 00:57:01;;;;;;;;;;;17.00;90.20;;;;;;6339717;22;19936;-91
2022/09/17 00:59:26;;;;;;;;;;;17.00;90.20;;;;;;6340015;22;19962;-91
2022/09/17 01:01:52;;;;;;;;;;;17.00;90.30;;;;;;6339470;22;19986;-91
2022/09/17 01:04:19;;;;;;;;;;;17.00;90.00;;;;;;6339765;22;19930;-91
2022/09/17 01:06:50;;;;;;;;;;;17.10;89.30;;;;;;6339296;22;19946;-91
2022/09/17 01:09:16;;;;;;;;;;;17.10;88.80;;;;;;6339334;22;19953;-91
2022/09/17 01:11:47;;;;;;;;;;;17.00;88.50;;;;;;6339585;22;19937;-91
2022/09/17 01:14:13;;;;;;;;;;;17.00;88.60;;;;;;6339687;22;19935;-91
2022/09/17 01:16:41;;;;;;;;;;;17.00;88.80;;;;;;6339518;22;19931;-91
2022/09/17 01:19:07;;;;;;;;;;;16.90;88.90;;;;;;6339692;22;19944;-91
2022/09/17 01:21:39;;;;;;;;;;;17.00;89.30;;;;;;6339643;22;19930;-91
2022/09/17 01:24:23;;;;;;;;;;;16.90;89.20;;;;;;6339717;22;19933;-91
2022/09/17 01:27:09;;;;;;;;;;;16.90;88.90;;;;;;6339331;22;19934;-91
2022/09/17 01:29:53;;;;;;;;;;;16.90;88.50;;;;;;6260362;22;19999;-90
2022/09/17 01:32:19;;;;;;;;;;;16.80;88.60;;;;;;6339404;22;19938;-91
2022/09/17 01:35:05;;;;;;;;;;;16.80;88.40;;;;;;6339456;22;19986;-91
2022/09/17 01:37:42;;;;;;;;;;;16.80;88.50;;;;;;6339579;22;19935;-90
2022/09/17 01:40:31;;;;;;;;;;;16.90;88.60;;;;;;6339409;22;19940;-90
2022/09/17 01:42:59;;;;;;;;;;;16.90;89.00;;;;;;6318691;22;20363;-91
2022/09/17 01:45:27;;;;;;;;;;;16.90;88.80;;;;;;6339242;22;19936;-90
2022/09/17 01:48:02;;;;;;;;;;;17.00;88.80;;;;;;6339438;22;19937;-91
2022/09/17 01:50:30;;;;;;;;;;;17.00;89.20;;;;;;6338961;22;19953;-90
2022/09/17 01:52:56;;;;;;;;;;;16.90;89.30;;;;;;6339465;22;19926;-90
2022/09/17 01:55:24;;;;;;;;;;;16.80;89.00;;;;;;6338893;22;20002;-90
2022/09/17 01:57:54;;;;;;;;;;;16.70;89.50;;;;;;6339516;22;19953;-90
2022/09/17 02:00:21;;;;;;;;;;;16.80;90.30;;;;;;6338981;22;19990;-90
2022/09/17 02:02:49;;;;;;;;;;;16.80;90.60;;;;;;6339327;22;20022;-91
2022/09/17 02:05:20;;;;;;;;;;;16.80;90.30;;;;;;6339052;22;20012;-90
2022/09/17 02:07:57;;;;;;;;;;;16.90;90.00;;;;;;6311302;22;20387;-91
2022/09/17 02:10:25;;;;;;;;;;;16.90;89.70;;;;;;6339201;22;20038;-90
2022/09/17 02:12:55;;;;;;;;;;;16.90;89.40;;;;;;6339150;22;20032;-91
2022/09/17 02:15:25;;;;;;;;;;;16.90;89.30;;;;;;6339033;22;19956;-91
2022/09/17 02:17:54;;;;;;;;;;;16.90;89.00;;;;;;6339226;22;19933;-90
2022/09/17 02:20:23;;;;;;;;;;;16.90;89.20;;;;;;6339238;22;19947;-91
2022/09/17 02:22:51;;;;;;;;;;;16.90;89.20;;;;;;6339056;22;19938;-91
2022/09/17 02:25:19;;;;;;;;;;;16.90;89.10;;;;;;6338948;22;19930;-90
2022/09/17 02:28:01;;;;;;;;;;;16.90;89.20;;;;;;6339189;22;20434;-91
2022/09/17 02:30:27;;;;;;;;;;;16.90;89.40;;;;;;6338789;22;20039;-91
2022/09/17 02:32:53;;;;;;;;;;;16.90;89.60;;;;;;6338920;22;20042;-91
2022/09/17 02:35:18;;;;;;;;;;;16.80;89.50;;;;;;6338856;22;19934;-91
2022/09/17 02:37:44;;;;;;;;;;;16.80;89.80;;;;;;6339134;22;19941;-91
2022/09/17 02:40:11;;;;;;;;;;;16.80;90.10;;;;;;6338885;22;19949;-91
2022/09/17 02:42:36;;;;;;;;;;;16.80;90.20;;;;;;6339113;22;19966;-91
2022/09/17 02:45:02;;;;;;;;;;;16.80;90.20;;;;;;6338720;22;19942;-90
2022/09/17 02:47:27;;;;;;;;;;;16.80;90.00;;;;;;6339011;22;19941;-91
2022/09/17 02:49:56;;;;;;;;;;;16.80;89.90;;;;;;6338781;22;20373;-90
2022/09/17 02:52:21;;;;;;;;;;;16.80;89.60;;;;;;6311018;22;20393;-91
2022/09/17 02:55:00;;;;;;;;;;;16.80;89.40;;;;;;6338722;22;19970;-91
2022/09/17 02:57:29;;;;;;;;;;;16.90;89.10;;;;;;6339269;22;19937;-90
2022/09/17 02:59:57;;;;;;;;;;;16.80;88.90;;;;;;6338791;22;19934;-91
2022/09/17 03:02:26;;;;;;;;;;;16.80;88.80;;;;;;6338741;22;19954;-91
2022/09/17 03:04:52;;;;;;;;;;;16.80;88.40;;;;;;6338886;22;19936;-91
2022/09/17 03:07:19;;;;;;;;;;;16.80;87.90;;;;;;6338710;22;20011;-91
2022/09/17 03:09:44;;;;;;;;;;;16.80;87.20;;;;;;6310711;22;19956;-91
2022/09/17 03:12:10;;;;;;;;;;;16.80;87.10;;;;;;6339109;22;20246;-91
2022/09/17 03:14:36;;;;;;;;;;;16.80;86.60;;;;;;6338820;22;19986;-91
2022/09/17 03:17:02;;;;;;;;;;;16.80;86.40;;;;;;6338419;22;20343;-91
2022/09/17 03:19:27;;;;;;;;;;;16.80;86.40;;;;;;6338530;22;19966;-91
2022/09/17 03:21:53;;;;;;;;;;;16.80;86.70;;;;;;6338342;22;20004;-91
2022/09/17 03:24:19;;;;;;;;;;;16.80;86.60;;;;;;6338639;22;20020;-91
2022/09/17 03:26:46;;;;;;;;;;;16.70;86.60;;;;;;6338468;22;19934;-90
2022/09/17 03:29:12;;;;;;;;;;;16.70;86.20;;;;;;6338593;22;19999;-90
2022/09/17 03:31:37;;;;;;;;;;;16.70;86.00;;;;;;6338482;22;19987;-90
2022/09/17 03:34:03;;;;;;;;;;;16.60;86.10;;;;;;6338737;22;19935;-91
2022/09/17 03:36:29;;;;;;;;;;;16.60;86.30;;;;;;6338453;22;20365;-90
2022/09/17 03:38:57;;;;;;;;;;;16.60;86.40;;;;;;6338599;22;19940;-91
2022/09/17 03:41:23;;;;;;;;;;;16.60;86.40;;;;;;6338994;22;19940;-90
2022/09/17 03:43:49;;;;;;;;;;;16.60;86.50;;;;;;6338587;22;20352;-91
2022/09/17 03:46:14;;;;;;;;;;;16.60;86.10;;;;;;6311228;22;20388;-91
2022/09/17 03:48:40;;;;;;;;;;;16.60;85.60;;;;;;6340049;22;20372;-91
2022/09/17 03:51:05;;;;;;;;;;;16.70;85.50;;;;;;6340021;22;19950;-91
2022/09/17 03:53:31;;;;;;;;;;;16.60;85.40;;;;;;6340264;22;19930;-90
2022/09/17 03:56:01;;;;;;;;;;;16.70;85.40;;;;;;6308754;22;19949;-90
2022/09/17 03:58:26;;;;;;;;;;;16.70;85.00;;;;;;6308573;22;19933;-90
2022/09/17 04:00:53;;;;;;;;;;;16.60;84.80;;;;;;6308827;22;20009;-90
2022/09/17 04:03:20;;;;;;;;;;;16.60;84.20;;;;;;6309093;22;19947;-91
2022/09/17 04:05:45;;;;;;;;;;;16.60;84.30;;;;;;6308832;22;19954;-90
2022/09/17 04:08:11;;;;;;;;;;;16.60;84.10;;;;;;6308927;22;20351;-90
2022/09/17 04:10:37;;;;;;;;;;;16.60;84.60;;;;;;6308724;22;19954;-91
2022/09/17 04:13:02;;;;;;;;;;;16.50;84.50;;;;;;6309009;22;19939;-90
2022/09/17 04:15:28;;;;;;;;;;;16.50;84.50;;;;;;6308812;22;19940;-90
2022/09/17 04:17:56;;;;;;;;;;;16.40;84.30;;;;;;6308823;22;19943;-90
2022/09/17 04:20:23;;;;;;;;;;;16.30;84.80;;;;;;6308841;22;19957;-91
2022/09/17 04:22:48;;;;;;;;;;;16.10;85.20;;;;;;6308906;22;19940;-90
2022/09/17 04:25:14;;;;;;;;;;;16.00;85.70;;;;;;6308628;22;19933;-90
2022/09/17 04:27:39;;;;;;;;;;;15.90;86.10;;;;;;6309042;22;20359;-90
2022/09/17 04:30:05;;;;;;;;;;;15.90;86.70;;;;;;6308621;22;20270;-90
2022/09/17 04:32:31;;;;;;;;;;;15.90;86.50;;;;;;6308876;22;19939;-91
2022/09/17 04:34:56;;;;;;;;;;;15.90;86.50;;;;;;6308770;22;20325;-90
2022/09/17 04:37:24;;;;;;;;;;;15.80;86.60;;;;;;6308846;22;19980;-91
2022/09/17 04:39:50;;;;;;;;;;;15.80;85.70;;;;;;6308676;22;19953;-91
2022/09/17 04:42:15;;;;;;;;;;;15.80;85.80;;;;;;6281481;22;19942;-90
2022/09/17 04:44:41;;;;;;;;;;;15.80;86.20;;;;;;6308570;22;19941;-90
2022/09/17 04:47:06;;;;;;;;;;;15.80;86.50;;;;;;6308519;22;19957;-91
2022/09/17 04:49:32;;;;;;;;;;;15.80;86.90;;;;;;6308482;22;19951;-90
2022/09/17 04:51:57;;;;;;;;;;;15.80;86.80;;;;;;6308206;22;19986;-90
2022/09/17 04:54:23;;;;;;;;;;;15.80;86.80;;;;;;6319622;22;20009;-90
2022/09/17 04:56:49;;;;;;;;;;;15.80;86.90;;;;;;6339507;22;19969;-91
2022/09/17 04:59:14;;;;;;;;;;;15.80;86.90;;;;;;6339777;22;19942;-91
2022/09/17 05:01:41;;;;;;;;;;;15.80;86.90;;;;;;6339073;22;19946;-91
2022/09/17 05:04:07;;;;;;;;;;;15.80;86.90;;;;;;6339703;22;19930;-90
2022/09/17 05:06:32;;;;;;;;;;;15.80;87.20;;;;;;6339470;22;20372;-91
2022/09/17 05:08:58;;;;;;;;;;;15.80;87.30;;;;;;6339597;22;19966;-91
2022/09/17 05:11:23;;;;;;;;;;;15.90;87.30;;;;;;6339533;22;20265;-91
2022/09/17 05:13:49;;;;;;;;;;;15.90;87.10;;;;;;6339730;22;19963;-90
2022/09/17 05:16:14;;;;;;;;;;;15.90;87.30;;;;;;6339570;22;19962;-90
2022/09/17 05:18:40;;;;;;;;;;;15.90;87.30;;;;;;6339996;22;19949;-90
2022/09/17 05:21:06;;;;;;;;;;;15.90;87.30;;;;;;6339774;22;19927;-90
2022/09/17 05:23:31;;;;;;;;;;;15.90;87.30;;;;;;6339490;22;19933;-90
2022/09/17 05:25:58;;;;;;;;;;;15.90;87.50;;;;;;6339366;22;19933;-90
2022/09/17 05:28:24;;;;;;;;;;;15.80;87.60;;;;;;6339580;22;19937;-89
2022/09/17 05:30:49;;;;;;;;;;;15.80;87.30;;;;;;6338596;22;19981;-90
2022/09/17 05:33:15;;;;;;;;;;;15.70;87.70;;;;;;6339476;22;19958;-90
2022/09/17 05:35:42;;;;;;;;;;;15.60;88.10;;;;;;6339181;22;19936;-90
2022/09/17 05:38:08;;;;;;;;;;;15.50;88.00;;;;;;6339140;22;20638;-90
2022/09/17 05:40:34;;;;;;;;;;;15.50;88.20;;;;;;6338909;22;19939;-90
2022/09/17 05:43:00;;;;;;;;;;;15.50;88.30;;;;;;6339388;22;19981;-90
2022/09/17 05:45:26;;;;;;;;;;;15.40;88.40;;;;;;6338935;22;19940;-90
2022/09/17 05:47:55;;;;;;;;;;;15.40;88.70;;;;;;6339103;22;20423;-90
2022/09/17 05:50:22;;;;;;;;;;;15.40;88.90;;;;;;6338823;22;19954;-90
2022/09/17 05:52:47;;;;;;;;;;;15.30;89.00;;;;;;6338905;22;19999;-90
2022/09/17 05:55:13;;;;;;;;;;;15.30;89.10;;;;;;6338867;22;20015;-90
2022/09/17 05:57:38;;;;;;;;;;;15.30;89.30;;;;;;6339268;22;19937;-90
2022/09/17 06:00:05;;;;;;;;;;;15.30;89.30;;;;;;6338762;22;19937;-90
2022/09/17 06:02:30;;;;;;;;;;;15.30;89.40;;;;;;6339048;22;19945;-90
2022/09/17 06:04:59;;;;;;;;;;;15.30;89.60;;;;;;6338901;22;20257;-91
2022/09/17 06:07:25;;;;;;;;;;;15.40;89.50;;;;;;6339324;22;19988;-90
2022/09/17 06:09:50;;;;;;;;;;;15.40;89.60;;;;;;6338819;22;19955;-90
2022/09/17 06:12:16;;;;;;;;;;;15.40;89.50;;;;;;6339356;22;19935;-90
2022/09/17 06:14:41;;;;;;;;;;;15.40;89.40;;;;;;6339015;22;19940;-90
2022/09/17 06:17:07;;;;;;;;;;;15.40;89.40;;;;;;6339040;22;19935;-90
2022/09/17 06:19:32;;;;;;;;;;;15.40;89.30;;;;;;6339347;22;19942;-90
2022/09/17 06:21:58;;;;;;;;;;;15.40;89.20;;;;;;6339255;22;20011;-90
2022/09/17 06:24:24;;;;;;;;;;;15.30;89.20;;;;;;6338942;22;20014;-90
2022/09/17 06:26:50;;;;;;;;;;;15.30;89.20;;;;;;6339212;22;20027;-90
2022/09/17 06:29:16;;;;;;;;;;;15.30;88.50;;;;;;6339034;22;20010;-90
2022/09/17 06:31:43;;;;;;;;;;;15.20;88.30;;;;;;6338987;22;19935;-90
2022/09/17 06:34:09;;;;;;;;;;;15.20;88.40;;;;;;6338967;22;19940;-90
2022/09/17 06:36:34;;;;;;;;;;;15.20;88.40;;;;;;6339104;22;19939;-90
2022/09/17 06:39:00;;;;;;;;;;;15.20;88.30;;;;;;6339126;22;19941;-90
2022/09/17 06:41:26;;;;;;;;;;;15.20;88.40;;;;;;6338838;22;19940;-90
2022/09/17 06:43:53;;;;;;;;;;;15.20;88.30;;;;;;6339540;22;19942;-90
2022/09/17 06:46:19;;;;;;;;;;;15.20;88.30;;;;;;6338793;22;19947;-90
2022/09/17 06:48:44;;;;;;;;;;;15.10;88.10;;;;;;6338888;22;19935;-90
2022/09/17 06:51:10;;;;;;;;;;;15.10;87.90;;;;;;6338415;22;19954;-90
2022/09/17 06:53:36;;;;;;;;;;;15.10;87.50;;;;;;6338493;22;19945;-90
2022/09/17 06:56:03;;;;;;;;;;;15.00;87.50;;;;;;6339066;22;19939;-89
2022/09/17 06:58:29;;;;;;;;;;;15.00;87.50;;;;;;6338937;22;19934;-90
2022/09/17 07:00:59;;;;;;;;;;;14.90;87.30;;;;;;6338847;22;19935;-90
2022/09/17 07:03:25;;;;;;;;;;;14.90;87.40;;;;;;6338700;22;20421;-90
2022/09/17 07:05:51;;;;;;;;;;;14.90;87.30;;;;;;6331998;22;19992;-90
2022/09/17 07:08:16;;;;;;;;;;;14.80;87.30;;;;;;6338567;22;20259;-90
2022/09/17 07:10:42;;;;;;;;;;;14.80;87.90;;;;;;6338486;22;20364;-90
2022/09/17 07:13:08;;;;;;;;;;;14.80;88.00;;;;;;6338513;22;20414;-90
2022/09/17 07:15:33;;;;;;;;;;;14.80;87.90;;;;;;6338572;22;19939;-90
2022/09/17 07:18:01;;;;;;;;;;;14.90;88.00;;;;;;6338921;22;19962;-90
2022/09/17 07:20:26;;;;;;;;;;;14.80;88.10;;;;;;6339706;22;19942;-90
2022/09/17 07:22:56;;;;;;;;;;;14.90;88.00;;;;;;6340486;22;19935;-90
2022/09/17 07:25:22;;;;;;;;;;;14.90;87.90;;;;;;6340661;22;19930;-90
2022/09/17 07:27:47;;;;;;;;;;;14.90;88.00;;;;;;6340624;22;20379;-90
2022/09/17 07:30:14;;;;;;;;;;;14.90;88.00;;;;;;6340564;22;20003;-90
2022/09/17 07:32:39;;;;;;;;;;;15.00;88.10;;;;;;6340722;22;19943;-90
2022/09/17 07:35:05;;;;;;;;;;;15.00;88.30;;;;;;6340698;22;19985;-90
2022/09/17 07:37:31;;;;;;;;;;;15.10;88.20;;;;;;6340474;22;19942;-90
2022/09/17 07:39:57;;;;;;;;;;;15.10;88.00;;;;;;6340605;22;19939;-90
2022/09/17 07:42:22;;;;;;;;;;;15.10;88.00;;;;;;6340348;22;20271;-90
2022/09/17 07:44:48;;;;;;;;;;;15.20;87.90;;;;;;6340213;22;19945;-90
2022/09/17 07:47:13;;;;;;;;;;;15.20;87.90;;;;;;6340271;22;19951;-90
2022/09/17 07:49:39;;;;;;;;;;;15.20;88.00;;;;;;6340030;22;20007;-90
2022/09/17 07:52:05;;;;;;;;;;;15.20;88.00;;;;;;6340170;22;19951;-90
2022/09/17 07:54:31;;;;;;;;;;;15.20;88.00;;;;;;6340005;22;19977;-90
2022/09/17 07:56:56;;;;;;;;;;;15.30;88.10;;;;;;6340449;22;19939;-90
2022/09/17 07:59:22;;;;;;;;;;;15.20;88.10;;;;;;6340274;22;19937;-89
2022/09/17 08:01:47;;;;;;;;;;;15.30;88.00;;;;;;6340408;22;19956;-90
2022/09/17 08:04:13;;;;;;;;;;;15.20;87.80;;;;;;6339661;22;20317;-89
2022/09/17 08:06:39;;;;;;;;;;;15.10;87.80;;;;;;6333661;22;20027;-89
2022/09/17 08:09:06;;;;;;;;;;;15.10;88.00;;;;;;6339486;22;20050;-90
2022/09/17 08:11:31;;;;;;;;;;;14.90;88.20;;;;;;6340338;22;19936;-90
2022/09/17 08:13:57;;;;;;;;;;;14.90;88.40;;;;;;6339741;22;19942;-90
2022/09/17 08:16:23;;;;;;;;;;;14.90;88.30;;;;;;6340085;22;19934;-90
2022/09/17 08:18:53;;;;;;;;;;;14.90;88.40;;;;;;6339506;22;19937;-90
2022/09/17 08:21:19;;;;;;;;;;;14.90;88.40;;;;;;6312214;22;20401;-90
2022/09/17 08:23:44;;;;;;;;;;;14.80;88.50;;;;;;6340194;22;20004;-90
2022/09/17 08:26:14;;;;;;;;;;;14.90;88.60;;;;;;6339715;22;20329;-90
2022/09/17 08:28:43;;;;;;;;;;;14.80;88.70;;;;;;6339901;22;19936;-90
2022/09/17 08:31:09;;;;;;;;;;;14.90;88.60;;;;;;6339609;22;19938;-90
2022/09/17 08:33:35;;;;;;;;;;;14.90;88.80;;;;;;6339878;22;19987;-90
2022/09/17 08:36:01;;;;;;;;;;;14.90;89.10;;;;;;6340123;22;19940;-90
2022/09/17 08:38:32;;;;;;;;;;;15.00;89.30;;;;;;6340108;22;20313;-90
2022/09/17 08:41:07;;;;;;;;;;;15.00;89.30;;;;;;6339862;22;19930;-90
2022/09/17 08:43:34;;;;;;;;;;;15.00;88.90;;;;;;6339993;22;19929;-89
2022/09/17 08:45:59;;;;;;;;;;;15.10;89.30;;;;;;6339820;22;19939;-90
2022/09/17 08:48:30;;;;;;;;;;;15.20;90.10;;;;;;6340000;22;20247;-90
2022/09/17 08:50:55;;;;;;;;;;;15.40;90.20;;;;;;6339424;22;19970;-90
2022/09/17 08:56:02;;;;;;;;;;;15.50;87.90;;;;;;6339155;22;19981;-90
2022/09/17 08:58:39;;;;;;;;;;;15.40;87.90;;;;;;6312231;22;19935;-90
2022/09/17 09:01:17;;;;;;;;;;;15.40;88.10;;;;;;6340079;22;20365;-90
2022/09/17 09:04:01;;;;;;;;;;;15.40;87.30;;;;;;6339785;22;20008;-90
2022/09/17 09:06:29;;;;;;;;;;;15.40;87.80;;;;;;6339882;22;19964;-90
2022/09/17 09:08:55;;;;;;;;;;;15.40;88.20;;;;;;6339489;22;19933;-90
2022/09/17 09:11:25;;;;;;;;;;;15.40;87.90;;;;;;6339732;22;19943;-90
2022/09/17 09:13:59;;;;;;;;;;;15.40;87.90;;;;;;6339641;22;19944;-90
2022/09/17 09:16:27;;;;;;;;;;;15.30;87.40;;;;;;6340114;22;19953;-90
2022/09/17 09:18:54;;;;;;;;;;;15.40;86.40;;;;;;6340459;22;19938;-90
2022/09/17 09:21:35;;;;;;;;;;;15.30;86.50;;;;;;6339681;22;19942;-89
2022/09/17 09:24:06;;;;;;;;;;;15.40;85.30;;;;;;6311984;22;19943;-90
2022/09/17 09:26:46;;;;;;;;;;;15.40;85.30;;;;;;6339826;22;19942;-90
2022/09/17 09:29:15;;;;;;;;;;;15.40;85.10;;;;;;6339410;22;20269;-90
2022/09/17 09:31:40;;;;;;;;;;;15.40;84.90;;;;;;6339623;22;19939;-90
2022/09/17 09:34:06;;;;;;;;;;;15.40;84.30;;;;;;6339253;22;20344;-90
2022/09/17 09:36:32;;;;;;;;;;;15.30;84.30;;;;;;6339496;22;20346;-90
2022/09/17 09:39:03;;;;;;;;;;;15.20;84.50;;;;;;6338747;22;19933;-90
2022/09/17 09:41:31;;;;;;;;;;;15.20;84.80;;;;;;6339091;22;20018;-90
2022/09/17 09:43:57;;;;;;;;;;;15.10;85.00;;;;;;6338637;22;19941;-90
2022/09/17 09:46:29;;;;;;;;;;;15.20;85.00;;;;;;6339190;22;19938;-90
2022/09/17 09:49:16;;;;;;;;;;;15.10;84.90;;;;;;6338903;22;20348;-91
2022/09/17 09:51:57;;;;;;;;;;;15.10;85.80;;;;;;6339292;22;19950;-90
2022/09/17 09:54:41;;;;;;;;;;;15.20;85.70;;;;;;6339055;22;20525;-90
2022/09/17 09:57:09;;;;;;;;;;;15.20;85.40;;;;;;6339297;22;19938;-90
2022/09/17 09:59:35;;;;;;;;;;;15.30;85.50;;;;;;6339119;22;19934;-90
2022/09/17 10:02:00;;;;;;;;;;;15.30;85.20;;;;;;6339597;22;20384;-90
2022/09/17 10:04:27;;;;;;;;;;;15.30;85.40;;;;;;6339475;22;19939;-91
2022/09/17 10:06:54;;;;;;;;;;;15.40;84.70;;;;;;6339460;22;19935;-90
2022/09/17 10:09:21;;;;;;;;;;;15.40;83.40;;;;;;6339024;22;20365;-90
2022/09/17 10:12:13;;;;;;;;;;;15.50;82.80;;;;;;6339407;22;20358;-91
2022/09/17 10:14:40;;;;;;;;;;;15.40;82.20;;;;;;6332435;22;19936;-90
2022/09/17 10:17:22;;;;;;;;;;;15.40;82.50;;;;;;6338907;22;20349;-90
2022/09/17 10:20:10;;;;;;;;;;;15.50;81.70;;;;;;6339080;22;19935;-90
2022/09/17 10:22:43;;;;;;;;;;;15.70;81.20;;;;;;6338905;22;19942;-90
2022/09/17 10:25:27;;;;;;;;;;;15.70;80.70;;;;;;6339161;22;19968;-90
2022/09/17 10:27:53;;;;;;;;;;;15.80;79.70;;;;;;6339022;22;19951;-91
2022/09/17 10:30:19;;;;;;;;;;;16.00;78.60;;;;;;6339000;22;19954;-91
2022/09/17 10:33:04;;;;;;;;;;;16.00;78.60;;;;;;6338388;22;20017;-91
2022/09/17 10:35:30;;;;;;;;;;;16.10;77.70;;;;;;6338853;22;19933;-91
2022/09/17 10:37:56;;;;;;;;;;;16.10;77.60;;;;;;6338864;22;20255;-91
2022/09/17 10:40:24;;;;;;;;;;;16.20;77.30;;;;;;6338735;22;19936;-91
2022/09/17 10:43:09;;;;;;;;;;;16.20;77.50;;;;;;6338807;22;19963;-91
2022/09/17 10:45:37;;;;;;;;;;;16.10;76.60;;;;;;6338784;22;20354;-91
2022/09/17 10:48:03;;;;;;;;;;;16.20;77.60;;;;;;6338448;22;20372;-90
2022/09/17 10:50:30;;;;;;;;;;;16.20;78.20;;;;;;6338674;22;19967;-91
2022/09/17 10:53:00;;;;;;;;;;;16.30;76.40;;;;;;6338892;22;20024;-91
2022/09/17 10:55:35;;;;;;;;;;;16.30;77.60;;;;;;6339869;22;19970;-91
2022/09/17 10:58:06;;;;;;;;;;;16.40;77.30;;;;;;6340705;22;20342;-91
2022/09/17 11:00:54;;;;;;;;;;;16.60;76.90;;;;;;6341416;22;19997;-91
2022/09/17 11:03:39;;;;;;;;;;;16.70;76.60;;;;;;6340557;22;19932;-91
2022/09/17 11:06:20;;;;;;;;;;;16.80;77.30;;;;;;6340778;22;19977;-91
2022/09/17 11:09:05;;;;;;;;;;;16.90;76.10;;;;;;6340552;22;19951;-91
2022/09/17 11:11:46;;;;;;;;;;;16.90;74.30;;;;;;6340038;22;19940;-91
2022/09/17 11:14:24;;;;;;;;;;;17.00;72.50;;;;;;6340592;22;19931;-90
2022/09/17 11:17:00;;;;;;;;;;;16.70;72.50;;;;;;6340157;22;19959;-91
2022/09/17 11:19:31;;;;;;;;;;;16.70;71.80;;;;;;6312567;22;19934;-91
2022/09/17 11:22:00;;;;;;;;;;;16.60;72.50;;;;;;6340476;22;19949;-90
2022/09/17 11:24:32;;;;;;;;;;;16.70;74.40;;;;;;6340769;22;19936;-90
2022/09/17 11:27:16;;;;;;;;;;;16.70;73.30;;;;;;6340140;22;19938;-90
2022/09/17 11:29:41;;;;;;;;;;;16.70;73.00;;;;;;6339857;22;19954;-91
2022/09/17 11:32:19;;;;;;;;;;;17.10;73.40;;;;;;6340420;22;19936;-90
2022/09/17 11:34:46;;;;;;;;;;;17.10;71.70;;;;;;6340254;22;20317;-91
2022/09/17 11:37:21;;;;;;;;;;;16.90;73.30;;;;;;6339976;22;19960;-91
2022/09/17 11:39:58;;;;;;;;;;;16.70;72.20;;;;;;6340143;22;20363;-90
2022/09/17 11:42:28;;;;;;;;;;;16.60;72.20;;;;;;6340022;22;19931;-90
2022/09/17 11:44:56;;;;;;;;;;;16.90;71.80;;;;;;6340091;22;19942;-91
2022/09/17 11:47:31;;;;;;;;;;;16.80;72.90;;;;;;6340046;22;20258;-91
2022/09/17 11:50:00;;;;;;;;;;;16.80;72.90;;;;;;6339758;22;19972;-91
2022/09/17 11:52:30;;;;;;;;;;;17.50;71.60;;;;;;6339900;22;19976;-91
2022/09/17 11:55:04;;;;;;;;;;;17.90;69.70;;;;;;6339730;22;19969;-91
2022/09/17 11:57:32;;;;;;;;;;;18.30;67.00;;;;;;6339736;22;20064;-91
2022/09/17 11:59:57;;;;;;;;;;;18.60;67.60;;;;;;6340054;22;19933;-91
2022/09/17 12:02:42;;;;;;;;;;;18.60;66.20;;;;;;6312223;22;19938;-91
2022/09/17 12:05:15;;;;;;;;;;;18.10;67.10;;;;;;6339511;22;19944;-91
2022/09/17 12:07:46;;;;;;;;;;;18.10;67.60;;;;;;6338993;22;19930;-91
2022/09/17 12:10:30;;;;;;;;;;;18.40;68.60;;;;;;6339366;22;19961;-90
2022/09/17 12:12:58;;;;;;;;;;;19.00;67.20;;;;;;6339535;22;19931;-91
2022/09/17 12:15:25;;;;;;;;;;;19.10;62.60;;;;;;6339984;22;19927;-91
2022/09/17 12:18:00;;;;;;;;;;;19.10;67.10;;;;;;6339762;22;19940;-91
2022/09/17 12:20:28;;;;;;;;;;;20.00;65.60;;;;;;6339919;22;20003;-91
2022/09/17 12:22:56;;;;;;;;;;;20.80;60.00;;;;;;6339122;22;20007;-91
2022/09/17 12:25:22;;;;;;;;;;;21.40;56.30;;;;;;6339637;22;19945;-91
2022/09/17 12:27:52;;;;;;;;;;;21.80;53.90;;;;;;6339458;22;20381;-90
2022/09/17 12:30:28;;;;;;;;;;;20.90;56.10;;;;;;6339081;22;20036;-91
2022/09/17 12:32:55;;;;;;;;;;;20.90;57.90;;;;;;6339654;22;20057;-91
2022/09/17 12:35:27;;;;;;;;;;;22.00;55.30;;;;;;6339746;22;20250;-91
2022/09/17 12:38:11;;;;;;;;;;;23.00;54.00;;;;;;6311656;22;20317;-91
2022/09/17 12:40:36;;;;;;;;;;;23.30;49.20;;;;;;6339267;22;19950;-91
2022/09/17 12:43:27;;;;;;;;;;;22.90;48.60;;;;;;6339367;22;19931;-91
2022/09/17 12:46:11;;;;;;;;;;;23.30;49.00;;;;;;6339254;22;19943;-90
2022/09/17 12:48:51;;;;;;;;;;;21.80;51.60;;;;;;6311463;22;19984;-91
2022/09/17 12:51:37;;;;;;;;;;;20.50;57.80;;;;;;6339225;22;20036;-91
2022/09/17 12:54:09;;;;;;;;;;;20.30;59.50;;;;;;6339111;22;19983;-91
2022/09/17 12:56:40;;;;;;;;;;;19.90;58.30;;;;;;6339276;22;19946;-91
2022/09/17 12:59:11;;;;;;;;;;;20.30;58.70;;;;;;6339447;22;20026;-90
2022/09/17 13:01:49;;;;;;;;;;;20.70;57.10;;;;;;6339439;22;19964;-91
2022/09/17 13:04:21;;;;;;;;;;;21.50;54.50;;;;;;6339261;22;19988;-91
2022/09/17 13:07:25;;;;;;;;;;;21.50;52.70;;;;;;6339342;22;20012;-90
2022/09/17 13:09:50;;;;;;;;;;;21.60;53.70;;;;;;6182953;23;19939;-91
2022/09/17 13:12:22;;;;;;;;;;;21.80;52.10;;;;;;6182322;23;19962;-91
2022/09/17 13:14:54;;;;;;;;;;;21.80;52.90;;;;;;6262571;22;19933;-91
2022/09/17 13:17:33;;;;;;;;;;;22.20;49.40;;;;;;6339237;22;20360;-90
2022/09/17 13:20:30;;;;;;;;;;;22.00;51.60;;;;;;6339079;22;20349;-90
2022/09/17 13:22:57;;;;;;;;;;;20.30;53.70;;;;;;6253416;22;19935;-90
2022/09/17 13:25:23;;;;;;;;;;;20.10;58.00;;;;;;6311548;22;20305;-91
2022/09/17 13:27:50;;;;;;;;;;;20.30;57.90;;;;;;6339221;22;19965;-90
2022/09/17 13:30:17;;;;;;;;;;;19.80;57.50;;;;;;6338981;22;20035;-91
2022/09/17 13:32:43;;;;;;;;;;;19.10;62.50;;;;;;6339011;22;19983;-90
2022/09/17 13:35:12;;;;;;;;;;;19.20;59.70;;;;;;6339237;22;19937;-90
2022/09/17 13:37:53;;;;;;;;;;;18.90;63.70;;;;;;6339167;22;19950;-91
2022/09/17 13:40:29;;;;;;;;;;;20.20;57.50;;;;;;6338912;22;19940;-91
2022/09/17 13:42:56;;;;;;;;;;;21.70;52.90;;;;;;6338517;22;19935;-91
2022/09/17 13:45:22;;;;;;;;;;;22.20;51.10;;;;;;6339218;22;19943;-90
2022/09/17 13:47:52;;;;;;;;;;;22.00;50.40;;;;;;6339141;22;19934;-91
2022/09/17 13:50:34;;;;;;;;;;;22.30;47.20;;;;;;6339028;22;19972;-91
2022/09/17 13:53:15;;;;;;;;;;;22.90;47.30;;;;;;6338435;22;19934;-91
2022/09/17 13:55:50;;;;;;;;;;;22.30;49.10;;;;;;6338018;22;20425;-90
2022/09/17 13:58:18;;;;;;;;;;;22.10;49.20;;;;;;6338541;22;20429;-91
2022/09/17 14:00:52;;;;;;;;;;;22.30;48.40;;;;;;6338893;22;19984;-91
2022/09/17 14:03:30;;;;;;;;;;;22.90;48.30;;;;;;6310907;22;19940;-91
2022/09/17 14:05:55;;;;;;;;;;;23.40;47.20;;;;;;6339340;22;19936;-91
2022/09/17 14:08:28;;;;;;;;;;;23.80;45.00;;;;;;6338178;22;19944;-91
2022/09/17 14:10:54;;;;;;;;;;;23.80;44.50;;;;;;6338721;22;20359;-91
2022/09/17 14:13:24;;;;;;;;;;;24.20;41.70;;;;;;6310677;22;19935;-91
2022/09/17 14:15:55;;;;;;;;;;;23.90;44.00;;;;;;6338960;22;19937;-91
2022/09/17 14:18:26;;;;;;;;;;;24.70;44.70;;;;;;6338502;22;19931;-91
2022/09/17 14:21:07;;;;;;;;;;;24.30;43.40;;;;;;6338888;22;19940;-91
2022/09/17 14:23:34;;;;;;;;;;;23.80;43.30;;;;;;6338758;22;19933;-91
2022/09/17 14:26:01;;;;;;;;;;;23.80;44.50;;;;;;6338785;22;20423;-91
2022/09/17 14:28:38;;;;;;;;;;;23.10;47.30;;;;;;6338372;22;19937;-91
2022/09/17 14:31:10;;;;;;;;;;;23.30;45.20;;;;;;6338083;22;20001;-91